Time;durP1;ratioP1;P1;durP2;ratioP2;P2;SDS_P1;SDS_P2;PMS_P1;PMS_P2;Temp;Humidity;BMP_temperature;BMP_pressure;BME280_temperature;BME280_humidity;BME280_pressure;Samples;Min_cycle;Max_cycle;Signal;HPM_P1;HPM_P2
2023/03/15 00:00:53;;;;;;;;;;;;;;;10.54;37.36;98030.16;5074425;28;19916;-74
2023/03/15 00:03:18;;;;;;;;;;;;;;;10.52;37.47;98019.84;5075127;28;19974;-74
2023/03/15 00:05:44;;;;;;;;;;;;;;;10.51;37.52;98012.97;5074885;28;19955;-75
2023/03/15 00:08:11;;;;;;;;;;;;;;;10.48;37.64;98000.19;5091454;28;19916;-75
2023/03/15 00:10:39;;;;;;;;;;;;;;;10.47;37.80;98001.16;5092465;28;20393;-74
2023/03/15 00:13:04;;;;;;;;;;;;;;;10.43;37.96;98000.56;5074845;28;19965;-74
2023/03/15 00:15:29;;;;;;;;;;;;;;;10.41;38.03;97999.09;5091361;28;19916;-75
2023/03/15 00:17:55;;;;;;;;;;;;;;;10.39;38.12;97994.00;5074676;28;19916;-74
2023/03/15 00:20:20;;;;;;;;;;;;;;;10.37;37.94;97995.91;5092846;28;20391;-74
2023/03/15 00:22:45;;;;;;;;;;;;;;;10.37;38.19;97992.47;5092739;28;20379;-75
2023/03/15 00:25:11;;;;;;;;;;;;;;;10.36;38.23;97994.25;5092396;28;19977;-75
2023/03/15 00:27:36;;;;;;;;;;;;;;;10.32;38.37;97988.47;5092722;28;20003;-75
2023/03/15 00:30:01;;;;;;;;;;;;;;;10.28;38.46;97984.47;5092983;28;19971;-75
2023/03/15 00:32:26;;;;;;;;;;;;;;;10.27;38.54;97976.78;5074024;28;20005;-75
2023/03/15 00:34:53;;;;;;;;;;;;;;;10.23;38.62;97973.63;5091384;28;20406;-75
2023/03/15 00:37:19;;;;;;;;;;;;;;;10.20;38.72;97971.28;5074145;28;20007;-75
2023/03/15 00:39:45;;;;;;;;;;;;;;;10.19;38.54;97968.78;5092644;28;19962;-75
2023/03/15 00:42:16;;;;;;;;;;;;;;;10.16;38.91;97962.06;5093123;28;19916;-75
2023/03/15 00:44:42;;;;;;;;;;;;;;;10.14;38.75;97956.16;5095710;28;19920;-74
2023/03/15 00:47:08;;;;;;;;;;;;;;;10.11;38.92;97953.81;5096695;28;20444;-75
2023/03/15 00:49:33;;;;;;;;;;;;;;;10.10;39.08;97954.75;5096596;28;19943;-74
2023/03/15 00:51:59;;;;;;;;;;;;;;;10.08;39.20;97947.06;5096402;28;20371;-75
2023/03/15 00:54:24;;;;;;;;;;;;;;;10.09;39.33;97940.09;5096806;28;20486;-75
2023/03/15 00:56:49;;;;;;;;;;;;;;;10.09;39.07;97934.88;5095189;28;19916;-75
2023/03/15 00:59:15;;;;;;;;;;;;;;;10.07;39.22;97932.41;5094917;28;19923;-74
2023/03/15 01:01:43;;;;;;;;;;;;;;;10.05;39.21;97929.06;5094969;28;19955;-75
2023/03/15 01:04:10;;;;;;;;;;;;;;;10.05;39.31;97928.25;5094837;28;19998;-74
2023/03/15 01:06:36;;;;;;;;;;;;;;;10.02;39.31;97918.09;5095825;28;20229;-75
2023/03/15 01:09:01;;;;;;;;;;;;;;;10.02;39.42;97915.50;5094743;28;19972;-74
2023/03/15 01:11:26;;;;;;;;;;;;;;;9.99;39.26;97911.34;5096081;28;20011;-74
2023/03/15 01:13:52;;;;;;;;;;;;;;;9.98;39.25;97904.50;5078331;28;19923;-74
2023/03/15 01:16:18;;;;;;;;;;;;;;;9.96;39.70;97903.78;5077913;28;20423;-74
2023/03/15 01:18:43;;;;;;;;;;;;;;;9.93;39.45;97896.25;5094769;28;19923;-74
2023/03/15 01:21:09;;;;;;;;;;;;;;;9.93;39.32;97893.63;5094666;28;19923;-74
2023/03/15 01:23:34;;;;;;;;;;;;;;;9.92;39.24;97889.41;5094979;28;19916;-73
2023/03/15 01:26:00;;;;;;;;;;;;;;;9.89;39.50;97885.25;5077363;28;19916;-74
2023/03/15 01:28:25;;;;;;;;;;;;;;;9.87;39.61;97883.78;5094854;28;19923;-73
2023/03/15 01:30:51;;;;;;;;;;;;;;;9.86;39.56;97882.94;5077470;28;19963;-75
2023/03/15 01:33:16;;;;;;;;;;;;;;;9.85;39.56;97881.28;5077486;28;20015;-74
2023/03/15 01:35:41;;;;;;;;;;;;;;;9.83;39.72;97875.38;5095628;28;20345;-74
2023/03/15 01:38:07;;;;;;;;;;;;;;;9.83;40.02;97877.97;5095798;28;20015;-74
2023/03/15 01:40:32;;;;;;;;;;;;;;;9.81;39.82;97868.66;5094734;28;19981;-75
2023/03/15 01:43:03;;;;;;;;;;;;;;;9.80;40.13;97867.00;5077192;28;19973;-73
2023/03/15 01:46:01;;;;;;;;;;;;;;;9.78;39.97;97856.72;5077261;28;19916;-76
2023/03/15 01:48:30;;;;;;;;;;;;;;;9.76;40.29;97867.25;5013216;28;20393;-73
2023/03/15 01:50:55;;;;;;;;;;;;;;;9.76;40.34;97863.84;4996747;28;20397;-73
2023/03/15 01:53:21;;;;;;;;;;;;;;;9.73;40.22;97859.72;4996575;28;19924;-74
2023/03/15 01:55:47;;;;;;;;;;;;;;;9.72;40.45;97863.25;4996880;28;20333;-74
2023/03/15 01:58:12;;;;;;;;;;;;;;;9.74;40.81;97868.34;4996807;28;19960;-73
2023/03/15 02:00:37;;;;;;;;;;;;;;;9.73;40.61;97871.94;5013180;28;19928;-74
2023/03/15 02:03:16;;;;;;;;;;;;;;;9.74;40.42;97871.78;4980408;28;20071;-73
2023/03/15 02:05:45;;;;;;;;;;;;;;;9.80;40.59;97874.81;4997118;28;20340;-74
2023/03/15 02:08:11;;;;;;;;;;;;;;;9.78;40.50;97873.16;5013084;28;19924;-74
2023/03/15 02:10:36;;;;;;;;;;;;;;;9.78;40.39;97878.38;4996383;28;19917;-74
2023/03/15 02:13:02;;;;;;;;;;;;;;;9.78;40.40;97873.16;4996680;28;19957;-74
2023/03/15 02:15:27;;;;;;;;;;;;;;;9.78;40.20;97874.94;4996372;28;19921;-74
2023/03/15 02:17:53;;;;;;;;;;;;;;;9.78;40.27;97887.97;4996362;28;19979;-74
2023/03/15 02:20:18;;;;;;;;;;;;;;;9.77;40.23;97884.56;4996673;28;20025;-74
2023/03/15 02:22:54;;;;;;;;;;;;;;;9.75;40.17;97880.44;5012500;28;19918;-74
2023/03/15 02:25:39;;;;;;;;;;;;;;;9.75;40.19;97881.25;5076956;28;19916;-74
2023/03/15 02:28:05;;;;;;;;;;;;;;;9.76;40.24;97882.09;5092913;28;19924;-74
2023/03/15 02:30:30;;;;;;;;;;;;;;;9.74;40.30;97874.41;5093173;28;19999;-74
2023/03/15 02:32:56;;;;;;;;;;;;;;;9.74;40.00;97876.16;5094907;28;19997;-74
2023/03/15 02:35:24;;;;;;;;;;;;;;;9.72;40.37;97876.28;5093215;28;19923;-74
2023/03/15 02:37:49;;;;;;;;;;;;;;;9.70;40.40;97878.22;5093219;28;19938;-74
2023/03/15 02:40:19;;;;;;;;;;;;;;;9.70;40.66;97885.22;5094438;28;20434;-74
2023/03/15 02:42:45;;;;;;;;;;;;;;;9.68;40.46;97887.16;5093177;28;19916;-74
2023/03/15 02:45:10;;;;;;;;;;;;;;;9.68;40.49;97889.75;5093019;28;20012;-75
2023/03/15 02:47:35;;;;;;;;;;;;;;;9.67;40.34;97891.50;5094317;28;20452;-73
2023/03/15 02:50:01;;;;;;;;;;;;;;;9.67;40.61;97893.31;5093103;28;19923;-73
2023/03/15 02:52:26;;;;;;;;;;;;;;;9.66;40.27;97889.88;5093162;28;19916;-73
2023/03/15 02:54:52;;;;;;;;;;;;;;;9.66;40.49;97889.03;5093015;28;19961;-73
2023/03/15 02:57:18;;;;;;;;;;;;;;;9.66;40.61;97889.03;5093346;28;20033;-73
2023/03/15 02:59:43;;;;;;;;;;;;;;;9.65;40.63;97887.41;5093821;28;19922;-73
2023/03/15 03:02:10;;;;;;;;;;;;;;;9.63;40.75;97874.50;5092853;28;19916;-73
2023/03/15 03:04:36;;;;;;;;;;;;;;;9.62;40.65;97870.25;5093482;28;19916;-73
2023/03/15 03:07:01;;;;;;;;;;;;;;;9.62;40.67;97874.63;5092562;28;19923;-73
2023/03/15 03:09:26;;;;;;;;;;;;;;;9.61;40.74;97868.59;5075234;28;19922;-73
2023/03/15 03:11:52;;;;;;;;;;;;;;;9.58;40.58;97867.09;5075196;28;19927;-73
2023/03/15 03:14:17;;;;;;;;;;;;;;;9.59;40.53;97862.69;5092592;28;19916;-74
2023/03/15 03:16:42;;;;;;;;;;;;;;;9.57;41.00;97864.63;5093882;28;19916;-72
2023/03/15 03:19:11;;;;;;;;;;;;;;;9.55;40.83;97863.91;5093573;28;19920;-72
2023/03/15 03:21:36;;;;;;;;;;;;;;;9.54;40.77;97857.88;5075618;28;19916;-73
2023/03/15 03:24:02;;;;;;;;;;;;;;;9.53;41.02;97861.44;5092456;28;20318;-73
2023/03/15 03:26:31;;;;;;;;;;;;;;;9.53;41.22;97865.81;5093061;28;19924;-74
2023/03/15 03:28:56;;;;;;;;;;;;;;;9.54;41.10;97864.88;5092788;28;19965;-73
2023/03/15 03:31:23;;;;;;;;;;;;;;;9.51;41.28;97858.13;5092207;28;19920;-73
2023/03/15 03:33:48;;;;;;;;;;;;;;;9.50;41.20;97861.69;5092257;28;19955;-73
2023/03/15 03:36:13;;;;;;;;;;;;;;;9.50;41.30;97861.69;5074783;28;19959;-73
2023/03/15 03:38:40;;;;;;;;;;;;;;;9.49;41.43;97862.66;5075083;28;19916;-73
2023/03/15 03:41:06;;;;;;;;;;;;;;;9.49;41.39;97861.81;5092137;28;19916;-74
2023/03/15 03:43:31;;;;;;;;;;;;;;;9.49;41.17;97862.66;5092322;28;19916;-74
2023/03/15 03:45:56;;;;;;;;;;;;;;;9.49;41.32;97867.88;5093325;28;19958;-74
2023/03/15 03:48:21;;;;;;;;;;;;;;;9.49;41.35;97860.06;5075096;28;19974;-75
2023/03/15 03:50:47;;;;;;;;;;;;;;;9.47;41.34;97867.19;5092038;28;19962;-74
2023/03/15 03:53:12;;;;;;;;;;;;;;;9.47;41.37;97869.78;5093382;28;19916;-74
2023/03/15 03:55:37;;;;;;;;;;;;;;;9.47;41.45;97863.75;5093085;28;20385;-74
2023/03/15 03:58:03;;;;;;;;;;;;;;;9.41;41.59;97865.09;5092894;28;20362;-74
2023/03/15 04:00:28;;;;;;;;;;;;;;;9.43;41.82;97868.41;5074891;28;19920;-73
2023/03/15 04:02:53;;;;;;;;;;;;;;;9.43;41.92;97865.78;5092596;28;19916;-73
2023/03/15 04:05:19;;;;;;;;;;;;;;;9.45;41.86;97868.25;5074597;28;19916;-73
2023/03/15 04:07:44;;;;;;;;;;;;;;;9.49;41.73;97867.88;5092717;28;19916;-73
2023/03/15 04:10:15;;;;;;;;;;;;;;;9.51;41.47;97871.16;5074422;28;20308;-73
2023/03/15 04:12:41;;;;;;;;;;;;;;;9.54;41.43;97870.91;5074482;28;19916;-73
2023/03/15 04:15:06;;;;;;;;;;;;;;;9.55;41.27;97869.94;5091369;28;19922;-74
2023/03/15 04:17:32;;;;;;;;;;;;;;;9.50;41.39;97868.69;5092515;28;19916;-73
2023/03/15 04:19:58;;;;;;;;;;;;;;;9.47;41.13;97867.19;5092315;28;20582;-73
2023/03/15 04:22:23;;;;;;;;;;;;;;;9.47;41.18;97872.41;5092212;28;19916;-72
2023/03/15 04:24:49;;;;;;;;;;;;;;;9.49;41.25;97867.03;5073794;28;19916;-73
2023/03/15 04:27:15;;;;;;;;;;;;;;;9.48;40.83;97858.41;5073692;28;19924;-74
2023/03/15 04:29:41;;;;;;;;;;;;;;;9.51;41.02;97858.13;5090306;28;19966;-75
2023/03/15 04:32:06;;;;;;;;;;;;;;;9.54;40.95;97857.88;5092539;28;19965;-74
2023/03/15 04:34:32;;;;;;;;;;;;;;;9.69;40.57;97867.94;5091071;28;19916;-73
2023/03/15 04:36:57;;;;;;;;;;;;;;;9.83;40.24;97849.31;5091590;28;19924;-74
2023/03/15 04:39:22;;;;;;;;;;;;;;;10.20;39.66;97840.00;5091188;28;20053;-74
2023/03/15 04:41:47;;;;;;;;;;;;;;;10.49;39.01;97851.31;5092538;28;19920;-74
2023/03/15 04:44:16;;;;;;;;;;;;;;;10.57;39.01;97845.41;5092657;28;19916;-75
2023/03/15 04:46:42;;;;;;;;;;;;;;;10.88;38.30;97841.78;5091130;28;19966;-78
2023/03/15 04:49:07;;;;;;;;;;;;;;;10.95;38.26;97838.47;5092290;28;19959;-75
2023/03/15 04:51:33;;;;;;;;;;;;;;;10.93;38.56;97839.59;5092041;28;19920;-77
2023/03/15 04:53:58;;;;;;;;;;;;;;;10.89;38.34;97831.19;5092077;28;20347;-76
2023/03/15 04:56:23;;;;;;;;;;;;;;;11.06;38.29;97829.66;5092232;28;20365;-76
2023/03/15 04:58:49;;;;;;;;;;;;;;;11.58;45.66;97832.59;5091629;28;20295;-75
2023/03/15 05:01:14;;;;;;;;;;;;;;;11.75;44.09;97828.38;5092388;28;20006;-77
2023/03/15 05:03:39;;;;;;;;;;;;;;;11.86;43.01;97826.50;5078870;28;19942;-76
2023/03/15 05:06:06;;;;;;;;;;;;;;;12.02;41.89;97818.88;5074052;28;20320;-75
2023/03/15 05:08:35;;;;;;;;;;;;;;;12.08;47.13;97812.22;5082271;28;19923;-76
2023/03/15 05:11:01;;;;;;;;;;;;;;;12.09;45.65;97811.25;5076840;28;19923;-77
2023/03/15 05:13:27;;;;;;;;;;;;;;;12.06;44.08;97814.97;5074019;28;20035;-77
2023/03/15 05:15:52;;;;;;;;;;;;;;;12.04;43.03;97818.72;5074042;28;20390;-75
2023/03/15 05:18:17;;;;;;;;;;;;;;;12.05;43.81;97817.75;5092125;28;20558;-76
2023/03/15 05:20:42;;;;;;;;;;;;;;;12.11;42.99;97809.28;5090567;28;19963;-76
2023/03/15 05:23:08;;;;;;;;;;;;;;;12.08;41.82;97802.59;5072779;28;19920;-77
2023/03/15 05:25:35;;;;;;;;;;;;;;;12.22;47.93;97805.63;5091530;28;20307;-77
2023/03/15 05:28:03;;;;;;;;;;;;;;;12.19;45.52;97796.31;5093217;28;20041;-76
2023/03/15 05:30:28;;;;;;;;;;;;;;;12.13;44.78;97795.09;5077859;28;20003;-75
2023/03/15 05:32:54;;;;;;;;;;;;;;;12.15;43.54;97796.75;5095424;28;20413;-76
2023/03/15 05:35:19;;;;;;;;;;;;;;;12.10;42.88;97798.03;5095470;28;19917;-76
2023/03/15 05:37:44;;;;;;;;;;;;;;;12.08;42.37;97791.28;5077087;28;19938;-77
2023/03/15 05:40:10;;;;;;;;;;;;;;;12.11;42.01;97796.22;5077722;28;19916;-76
2023/03/15 05:42:35;;;;;;;;;;;;;;;12.10;40.94;97799.81;5077281;28;19916;-76
2023/03/15 05:45:01;;;;;;;;;;;;;;;12.19;40.68;97785.00;5077428;28;19920;-81
2023/03/15 05:47:26;;;;;;;;;;;;;;;12.21;39.93;97793.53;5077650;28;19916;-78
2023/03/15 05:49:52;;;;;;;;;;;;;;;12.28;39.74;97794.56;5076964;28;19924;-77
2023/03/15 05:52:17;;;;;;;;;;;;;;;12.42;39.17;97796.66;5095733;28;19923;-77
2023/03/15 05:54:42;;;;;;;;;;;;;;;12.52;38.25;97800.97;5094901;28;19916;-77
2023/03/15 05:57:08;;;;;;;;;;;;;;;12.72;37.58;97796.38;5076907;28;20306;-77
2023/03/15 05:59:33;;;;;;;;;;;;;;;12.83;36.97;97791.69;5095839;28;19920;-77
2023/03/15 06:01:58;;;;;;;;;;;;;;;12.94;36.55;97798.47;5076933;28;19923;-78
2023/03/15 06:04:24;;;;;;;;;;;;;;;13.24;36.08;97792.91;5093493;28;19920;-76
2023/03/15 06:06:49;;;;;;;;;;;;;;;13.39;35.77;97797.41;5095795;28;19965;-75
2023/03/15 06:09:15;;;;;;;;;;;;;;;13.39;35.69;97797.41;5076985;28;19970;-79
2023/03/15 06:11:40;;;;;;;;;;;;;;;13.36;35.62;97807.38;5076610;28;20375;-78
2023/03/15 06:14:05;;;;;;;;;;;;;;;13.33;35.57;97807.69;5076830;28;19970;-78
2023/03/15 06:16:31;;;;;;;;;;;;;;;13.24;35.76;97806.00;5076905;28;19916;-78
2023/03/15 06:18:56;;;;;;;;;;;;;;;13.24;35.52;97814.69;5076645;28;19956;-79
2023/03/15 06:21:21;;;;;;;;;;;;;;;13.16;35.69;97818.06;5076501;28;20292;-78
2023/03/15 06:23:47;;;;;;;;;;;;;;;13.17;35.63;97817.13;5059451;28;19916;-82
2023/03/15 06:26:14;;;;;;;;;;;;;;;13.18;35.24;97821.34;5094593;28;19958;-82
2023/03/15 06:28:39;;;;;;;;;;;;;;;13.12;35.41;97827.22;5076848;28;19920;-79
2023/03/15 06:31:08;;;;;;;;;;;;;;;13.15;35.37;97836.56;5076396;28;19922;-79
2023/03/15 06:33:33;;;;;;;;;;;;;;;13.20;35.26;97843.00;5076199;28;19916;-79
2023/03/15 06:35:59;;;;;;;;;;;;;;;13.29;35.31;97835.19;5094163;28;20011;-79
2023/03/15 06:38:24;;;;;;;;;;;;;;;13.43;35.22;97841.66;5076555;28;20328;-79
2023/03/15 06:40:49;;;;;;;;;;;;;;;13.67;34.84;97835.69;5075741;28;19916;-79
2023/03/15 06:43:18;;;;;;;;;;;;;;;14.05;34.16;97836.13;5076446;28;19916;-79
2023/03/15 06:45:46;;;;;;;;;;;;;;;14.30;33.96;97842.22;5076614;28;20395;-77
2023/03/15 06:48:12;;;;;;;;;;;;;;;14.58;33.52;97852.41;5076160;28;19920;-79
2023/03/15 06:50:37;;;;;;;;;;;;;;;14.84;32.99;97847.81;5093906;28;19981;-79
2023/03/15 06:53:03;;;;;;;;;;;;;;;15.10;32.77;97853.88;5076316;28;19920;-79
2023/03/15 06:55:28;;;;;;;;;;;;;;;15.35;32.33;97852.00;5094030;28;20267;-79
2023/03/15 06:57:53;;;;;;;;;;;;;;;15.47;32.12;97855.91;5076015;28;19916;-78
2023/03/15 07:00:19;;;;;;;;;;;;;;;15.55;31.93;97852.44;5075791;28;20394;-80
2023/03/15 07:02:44;;;;;;;;;;;;;;;15.54;31.71;97856.88;5075893;28;20417;-78
2023/03/15 07:05:10;;;;;;;;;;;;;;;15.53;31.77;97849.97;5092146;28;19917;-79
2023/03/15 07:07:35;;;;;;;;;;;;;;;15.54;31.57;97849.00;5076266;28;20356;-78
2023/03/15 07:10:00;;;;;;;;;;;;;;;15.52;31.62;97842.25;5075074;28;19948;-80
2023/03/15 07:12:26;;;;;;;;;;;;;;;15.69;31.46;97838.56;5076226;28;19916;-79
2023/03/15 07:14:51;;;;;;;;;;;;;;;15.82;31.39;97831.97;5075778;28;20378;-81
2023/03/15 07:17:16;;;;;;;;;;;;;;;16.11;31.38;97831.28;5075384;28;19916;-78
2023/03/15 07:19:41;;;;;;;;;;;;;;;16.28;31.26;97834.63;5093577;28;20397;-80
2023/03/15 07:22:07;;;;;;;;;;;;;;;16.26;31.09;97831.34;5058540;28;19973;-79
2023/03/15 07:24:32;;;;;;;;;;;;;;;16.24;30.90;97826.28;5093720;28;19973;-78
2023/03/15 07:26:57;;;;;;;;;;;;;;;16.34;30.63;97814.69;5075476;28;19924;-79
2023/03/15 07:29:23;;;;;;;;;;;;;;;16.65;30.42;97814.56;5075419;28;19922;-79
2023/03/15 07:31:48;;;;;;;;;;;;;;;16.96;30.07;97811.03;5075015;28;19943;-79
2023/03/15 07:34:14;;;;;;;;;;;;;;;16.96;29.96;97814.47;5093614;28;20385;-79
2023/03/15 07:36:39;;;;;;;;;;;;;;;16.93;29.81;97806.13;5075489;28;19923;-83
2023/03/15 07:39:04;;;;;;;;;;;;;;;17.04;29.89;97808.31;5075808;28;19916;-79
2023/03/15 07:41:30;;;;;;;;;;;;;;;17.02;29.68;97812.13;5093190;28;20386;-79
2023/03/15 07:43:55;;;;;;;;;;;;;;;16.96;29.63;97811.03;5074969;28;20016;-78
2023/03/15 07:46:20;;;;;;;;;;;;;;;17.35;29.17;97802.03;5075500;28;19920;-79
2023/03/15 07:48:46;;;;;;;;;;;;;;;17.72;29.14;97801.03;5093984;28;19920;-78
2023/03/15 07:51:11;;;;;;;;;;;;;;;17.98;28.53;97802.41;5092997;28;19923;-80
2023/03/15 07:53:37;;;;;;;;;;;;;;;17.82;28.35;97799.94;5091591;28;19970;-79
2023/03/15 07:56:02;;;;;;;;;;;;;;;18.02;28.29;97787.78;5093434;28;19923;-78
2023/03/15 07:58:27;;;;;;;;;;;;;;;18.69;27.55;97777.81;5093459;28;19916;-78
2023/03/15 08:00:54;;;;;;;;;;;;;;;19.50;27.01;97779.09;5075331;28;20053;-80
2023/03/15 08:03:19;;;;;;;;;;;;;;;19.62;26.86;97779.34;5075298;28;19975;-79
2023/03/15 08:05:44;;;;;;;;;;;;;;;19.50;26.69;97776.47;5092124;28;20034;-80
2023/03/15 08:08:09;;;;;;;;;;;;;;;19.81;26.26;97778.59;5092961;28;19924;-80
2023/03/15 08:10:35;;;;;;;;;;;;;;;20.52;25.67;97761.38;5075412;28;19916;-79
2023/03/15 08:13:00;;;;;;;;;;;;;;;20.66;25.37;97761.41;5074251;28;20349;-80
2023/03/15 08:15:25;;;;;;;;;;;;;;;21.10;24.79;97757.22;5075508;28;19923;-81
2023/03/15 08:17:51;;;;;;;;;;;;;;;21.56;23.93;97761.56;5074887;28;20297;-80
2023/03/15 08:20:16;;;;;;;;;;;;;;;22.03;23.84;97748.84;5091840;28;19922;-79
2023/03/15 08:22:43;;;;;;;;;;;;;;;22.84;23.01;97749.03;5093161;28;19916;-79
2023/03/15 08:25:09;;;;;;;;;;;;;;;23.44;22.53;97750.22;5093068;28;20018;-82
2023/03/15 08:27:34;;;;;;;;;;;;;;;23.91;21.96;97749.63;5075397;28;20427;-80
2023/03/15 08:30:00;;;;;;;;;;;;;;;24.49;21.20;97745.44;5075398;28;20305;-79
2023/03/15 08:32:25;;;;;;;;;;;;;;;24.62;20.75;97739.94;5075112;28;19919;-79
2023/03/15 08:34:51;;;;;;;;;;;;;;;25.12;20.07;97743.13;5057910;28;20374;-78
2023/03/15 08:37:17;;;;;;;;;;;;;;;25.64;19.50;97733.22;5092931;28;19973;-78
2023/03/15 08:39:42;;;;;;;;;;;;;;;26.00;19.33;97725.06;5091207;28;19920;-83
2023/03/15 08:42:08;;;;;;;;;;;;;;;26.73;18.52;97716.31;5074889;28;19988;-78
2023/03/15 08:44:33;;;;;;;;;;;;;;;27.10;17.91;97713.03;5092811;28;20306;-79
2023/03/15 08:46:58;;;;;;;;;;;;;;;26.95;18.38;97713.66;5093212;28;20382;-79
2023/03/15 08:49:24;;;;;;;;;;;;;;;27.51;17.45;97708.16;5075288;28;19924;-79
2023/03/15 08:51:49;;;;;;;;;;;;;;;27.74;17.11;97699.81;5075061;28;20374;-80
2023/03/15 08:54:15;;;;;;;;;;;;;;;28.04;16.78;97693.16;5075259;28;19966;-79
2023/03/15 08:56:40;;;;;;;;;;;;;;;28.06;16.82;97699.06;5092685;28;19981;-78
2023/03/15 08:59:06;;;;;;;;;;;;;;;28.15;16.70;97699.41;5075149;28;19916;-79
2023/03/15 09:01:32;;;;;;;;;;;;;;;28.13;16.60;97688.94;5074816;28;20440;-79
2023/03/15 09:03:57;;;;;;;;;;;;;;;27.48;17.10;97693.38;5077743;28;19973;-81
2023/03/15 09:06:22;;;;;;;;;;;;;;;26.99;17.52;97698.69;5062084;28;19920;-78
2023/03/15 09:08:48;;;;;;;;;;;;;;;26.56;17.74;97689.53;5078184;28;19928;-79
2023/03/15 09:11:13;;;;;;;;;;;;;;;26.20;18.22;97692.47;5096454;28;19917;-79
2023/03/15 09:13:39;;;;;;;;;;;;;;;25.66;18.47;97692.91;5096491;28;19928;-78
2023/03/15 09:16:04;;;;;;;;;;;;;;;25.37;18.52;97678.75;5078405;28;19923;-78
2023/03/15 09:18:29;;;;;;;;;;;;;;;25.02;18.88;97691.13;5096237;28;20128;-80
2023/03/15 09:20:55;;;;;;;;;;;;;;;24.96;19.21;97683.25;5061480;28;19916;-79
2023/03/15 09:23:20;;;;;;;;;;;;;;;25.16;18.92;97685.50;5096754;28;19916;-81
2023/03/15 09:25:45;;;;;;;;;;;;;;;25.87;18.50;97683.38;5078136;28;19955;-78
2023/03/15 09:28:11;;;;;;;;;;;;;;;26.08;18.55;97678.41;5078270;28;19924;-77
2023/03/15 09:30:36;;;;;;;;;;;;;;;25.71;18.75;97663.56;5097055;28;19915;-80
2023/03/15 09:33:01;;;;;;;;;;;;;;;25.33;18.70;97659.69;5096318;28;19916;-79
2023/03/15 09:35:27;;;;;;;;;;;;;;;24.91;19.35;97662.63;5077872;28;19920;-78
2023/03/15 09:37:52;;;;;;;;;;;;;;;24.52;19.63;97660.41;5077999;28;19955;-79
2023/03/15 09:40:19;;;;;;;;;;;;;;;24.17;20.32;97647.91;5094315;28;19920;-79
2023/03/15 09:42:56;;;;;;;;;;;;;;;23.82;20.01;97646.00;5093982;28;19920;-80
2023/03/15 09:45:40;;;;;;;;;;;;;;;23.35;20.76;97643.19;5077627;28;19969;-78
2023/03/15 09:48:08;;;;;;;;;;;;;;;22.86;21.09;97653.81;5096220;28;19931;-80
2023/03/15 09:50:35;;;;;;;;;;;;;;;22.77;21.48;97648.00;5077512;28;19970;-77
2023/03/15 09:53:11;;;;;;;;;;;;;;;22.62;21.62;97655.53;5077812;28;19943;-77
2023/03/15 09:55:37;;;;;;;;;;;;;;;22.52;21.94;97648.06;5077717;28;19916;-78
2023/03/15 09:58:03;;;;;;;;;;;;;;;22.49;21.89;97656.47;5060343;28;19923;-78
2023/03/15 10:00:32;;;;;;;;;;;;;;;22.31;21.93;97646.66;5077565;28;19927;-78
2023/03/15 10:03:02;;;;;;;;;;;;;;;22.33;21.86;97670.31;5077228;28;19966;-79
2023/03/15 10:05:40;;;;;;;;;;;;;;;22.21;22.25;97662.22;5077651;28;19916;-79
2023/03/15 10:08:11;;;;;;;;;;;;;;;22.37;22.39;97660.88;5077335;28;19923;-84
2023/03/15 10:10:38;;;;;;;;;;;;;;;22.62;22.09;97654.72;5077743;28;19916;-80
2023/03/15 10:13:17;;;;;;;;;;;;;;;22.70;21.76;97649.09;5077181;28;19929;-82
2023/03/15 10:16:01;;;;;;;;;;;;;;;22.72;21.95;97647.03;5077256;28;20387;-83
2023/03/15 10:18:44;;;;;;;;;;;;;;;22.50;22.16;97644.00;5095266;28;19919;-79
2023/03/15 10:21:16;;;;;;;;;;;;;;;22.14;22.19;97643.69;5077112;28;19962;-79
2023/03/15 10:23:45;;;;;;;;;;;;;;;21.92;22.76;97631.81;5077351;28;19949;-78
2023/03/15 10:26:11;;;;;;;;;;;;;;;21.94;22.45;97627.91;5077005;28;20395;-78
2023/03/15 10:28:36;;;;;;;;;;;;;;;21.72;23.21;97627.47;5076947;28;19916;-79
2023/03/15 10:31:07;;;;;;;;;;;;;;;21.74;23.24;97621.94;5076901;28;19963;-78
2023/03/15 10:33:39;;;;;;;;;;;;;;;21.76;23.29;97627.84;5077573;28;19916;-79
2023/03/15 10:36:12;;;;;;;;;;;;;;;21.76;22.77;97628.69;5077371;28;19923;-80
2023/03/15 10:38:38;;;;;;;;;;;;;;;21.71;23.08;97627.69;5077165;28;20064;-80
2023/03/15 10:41:04;;;;;;;;;;;;;;;21.77;22.72;97624.16;5095299;28;19949;-82
2023/03/15 10:43:36;;;;;;;;;;;;;;;22.11;22.54;97627.38;5076727;28;19920;-80
2023/03/15 10:46:11;;;;;;;;;;;;;;;22.15;22.76;97621.38;5094068;28;19927;-79
2023/03/15 10:48:50;;;;;;;;;;;;;;;22.26;22.86;97617.19;5076717;28;19951;-80
2023/03/15 10:51:25;;;;;;;;;;;;;;;22.37;22.99;97607.72;5076710;28;20363;-79
2023/03/15 10:53:52;;;;;;;;;;;;;;;22.39;23.26;97605.63;5094524;28;20276;-80
2023/03/15 10:56:20;;;;;;;;;;;;;;;22.47;23.00;97597.41;5076488;28;19965;-78
2023/03/15 10:58:46;;;;;;;;;;;;;;;22.43;23.25;97601.53;5076676;28;19939;-79
2023/03/15 11:01:27;;;;;;;;;;;;;;;22.32;22.96;97595.09;5095440;28;20020;-79
2023/03/15 11:04:12;;;;;;;;;;;;;;;22.11;23.31;97588.31;5076406;28;20303;-80
2023/03/15 11:06:48;;;;;;;;;;;;;;;22.07;23.37;97583.66;5094290;28;20035;-79
2023/03/15 11:09:15;;;;;;;;;;;;;;;22.08;23.19;97575.47;5076653;28;19916;-78
2023/03/15 11:11:59;;;;;;;;;;;;;;;22.05;23.10;97570.59;5092693;28;20007;-79
2023/03/15 11:14:45;;;;;;;;;;;;;;;22.03;23.30;97557.53;5076289;28;19916;-80
2023/03/15 11:17:10;;;;;;;;;;;;;;;;;;5093378;28;19945;-79
2023/03/15 11:19:40;;;;;;;;;;;;;;;22.11;23.38;97559.09;5094635;28;19916;-81
2023/03/15 11:22:08;;;;;;;;;;;;;;;22.10;23.48;97554.78;5060365;28;20386;-80
2023/03/15 11:24:33;;;;;;;;;;;;;;;22.04;23.44;97550.34;5075978;28;19938;-79
2023/03/15 11:27:02;;;;;;;;;;;;;;;21.90;23.73;97544.38;5075645;28;20291;-79
2023/03/15 11:29:34;;;;;;;;;;;;;;;21.74;23.60;97536.97;5092259;28;19920;-79
2023/03/15 11:32:01;;;;;;;;;;;;;;;21.55;23.94;97538.75;5075610;28;19959;-78
2023/03/15 11:34:36;;;;;;;;;;;;;;;21.40;23.92;97549.69;5075987;28;20447;-80
2023/03/15 11:37:03;;;;;;;;;;;;;;;21.33;23.66;97542.56;5075740;28;19916;-80
2023/03/15 11:39:36;;;;;;;;;;;;;;;21.25;23.85;97542.84;5058643;28;20403;-79
2023/03/15 11:42:04;;;;;;;;;;;;;;;21.26;23.76;97540.97;5076201;28;19917;-78
2023/03/15 11:44:40;;;;;;;;;;;;;;;21.23;24.14;97533.47;5076082;28;19926;-80
2023/03/15 11:47:11;;;;;;;;;;;;;;;21.29;23.94;97532.59;5075402;28;19920;-79
2023/03/15 11:49:46;;;;;;;;;;;;;;;21.28;24.00;97539.72;5093649;28;19926;-79
2023/03/15 11:52:11;;;;;;;;;;;;;;;21.24;24.38;97522.63;5093953;28;19916;-80
2023/03/15 11:54:36;;;;;;;;;;;;;;;21.06;24.04;97520.72;5092507;28;19976;-79
2023/03/15 11:57:03;;;;;;;;;;;;;;;20.86;24.64;97514.69;5075487;28;19920;-79
2023/03/15 11:59:29;;;;;;;;;;;;;;;20.84;24.63;97512.28;5093873;28;19962;-80
2023/03/15 12:01:54;;;;;;;;;;;;;;;20.84;24.58;97511.44;5092434;28;19916;-80
2023/03/15 12:04:31;;;;;;;;;;;;;;;20.80;24.63;97508.41;5093569;28;19916;-79
2023/03/15 12:06:57;;;;;;;;;;;;;;;20.76;24.64;97500.09;5093698;28;19939;-80
2023/03/15 12:09:29;;;;;;;;;;;;;;;20.46;25.01;97505.06;5075152;28;19951;-79
2023/03/15 12:12:01;;;;;;;;;;;;;;;20.40;24.95;97495.34;5075687;28;20319;-82
2023/03/15 12:14:30;;;;;;;;;;;;;;;20.41;24.81;97503.06;5075272;28;19973;-80
2023/03/15 12:17:16;;;;;;;;;;;;;;;19.94;25.24;97505.06;5092254;28;19970;-78
2023/03/15 12:19:41;;;;;;;;;;;;;;;20.02;25.19;97498.69;5092620;28;20025;-78
2023/03/15 12:22:12;;;;;;;;;;;;;;;20.04;25.29;97504.63;5075300;28;20383;-80
2023/03/15 12:24:38;;;;;;;;;;;;;;;20.09;25.35;97504.00;5092347;28;19972;-80
2023/03/15 12:27:06;;;;;;;;;;;;;;;19.88;25.40;97496.09;5074542;28;19920;-81
2023/03/15 12:29:31;;;;;;;;;;;;;;;19.91;25.47;97494.03;5075102;28;19939;-79
2023/03/15 12:32:03;;;;;;;;;;;;;;;19.94;25.54;97490.97;5075009;28;20383;-80
2023/03/15 12:34:28;;;;;;;;;;;;;;;19.96;25.63;97494.25;5093364;28;19916;-79
2023/03/15 12:36:58;;;;;;;;;;;;;;;20.00;25.63;97496.28;5093289;28;19923;-79
2023/03/15 12:39:36;;;;;;;;;;;;;;;20.00;25.61;97493.63;5095936;28;19916;-80
2023/03/15 12:42:01;;;;;;;;;;;;;;;19.93;25.67;97490.19;5079025;28;19916;-81
2023/03/15 12:44:32;;;;;;;;;;;;;;;19.89;25.77;97488.94;5096322;28;20322;-79
2023/03/15 12:47:01;;;;;;;;;;;;;;;19.88;25.79;97484.69;5097614;28;19924;-80
2023/03/15 12:49:27;;;;;;;;;;;;;;;19.84;25.95;97478.16;5096072;28;19927;-79